Time;durP1;ratioP1;P1;durP2;ratioP2;P2;SDS_P1;SDS_P2;PMS_P1;PMS_P2;Temp;Humidity;BMP_temperature;BMP_pressure;BME280_temperature;BME280_humidity;BME280_pressure;Samples;Min_cycle;Max_cycle;Signal;HPM_P1;HPM_P2
2020/07/14 00:01:31;;;;;;;1.79;1.69;;;;;;;21.52;57.99;100476.59;;;;-57
2020/07/14 00:04:31;;;;;;;1.60;1.50;;;;;;;21.52;57.96;100480.27;;;;-57
2020/07/14 00:07:31;;;;;;;1.85;1.61;;;;;;;21.51;57.98;100480.36;;;;-56
2020/07/14 00:10:31;;;;;;;1.84;1.74;;;;;;;21.49;57.98;100478.31;;;;-57
2020/07/14 00:13:31;;;;;;;1.80;1.70;;;;;;;21.49;57.99;100476.61;;;;-57
2020/07/14 00:16:31;;;;;;;1.71;1.61;;;;;;;21.49;58.00;100474.41;;;;-57
2020/07/14 00:19:31;;;;;;;1.70;1.60;;;;;;;21.48;57.99;100476.30;;;;-57
2020/07/14 00:22:31;;;;;;;1.70;1.60;;;;;;;21.48;58.00;100473.78;;;;-56
2020/07/14 00:25:31;;;;;;;1.84;1.74;;;;;;;21.47;58.02;100470.16;;;;-57
2020/07/14 00:28:31;;;;;;;1.67;1.57;;;;;;;21.47;57.97;100471.72;;;;-57
2020/07/14 00:31:32;;;;;;;1.87;1.59;;;;;;;21.46;58.02;100470.03;;;;-58
2020/07/14 00:34:32;;;;;;;1.69;1.59;;;;;;;21.46;58.01;100465.84;;;;-57
2020/07/14 00:37:31;;;;;;;1.72;1.62;;;;;;;21.45;58.03;100467.06;;;;-57
2020/07/14 00:40:31;;;;;;;1.80;1.66;;;;;;;21.45;58.08;100466.17;;;;-58
2020/07/14 00:43:31;;;;;;;1.72;1.62;;;;;;;21.44;58.04;100462.45;;;;-57
2020/07/14 00:46:31;;;;;;;1.70;1.60;;;;;;;21.44;58.09;100461.23;;;;-57
2020/07/14 00:49:31;;;;;;;1.76;1.52;;;;;;;21.44;58.06;100458.54;;;;-57
2020/07/14 00:52:31;;;;;;;1.66;1.56;;;;;;;21.43;58.08;100459.00;;;;-57
2020/07/14 00:55:31;;;;;;;1.70;1.60;;;;;;;21.43;58.11;100454.28;;;;-57
2020/07/14 00:58:31;;;;;;;1.64;1.54;;;;;;;21.42;58.06;100451.27;;;;-57
2020/07/14 01:01:31;;;;;;;1.90;1.80;;;;;;;21.42;58.04;100451.17;;;;-57
2020/07/14 01:04:31;;;;;;;1.81;1.71;;;;;;;21.42;58.12;100453.70;;;;-56
2020/07/14 01:07:31;;;;;;;1.70;1.60;;;;;;;21.41;58.08;100449.36;;;;-57
2020/07/14 01:10:31;;;;;;;1.86;1.73;;;;;;;21.41;58.11;100448.22;;;;-57
2020/07/14 01:13:31;;;;;;;1.68;1.58;;;;;;;21.40;58.11;100447.58;;;;-57
2020/07/14 01:16:31;;;;;;;1.77;1.67;;;;;;;21.39;58.06;100447.42;;;;-57
2020/07/14 01:19:31;;;;;;;1.87;1.59;;;;;;;21.39;58.07;100441.23;;;;-57
2020/07/14 01:22:31;;;;;;;1.69;1.59;;;;;;;21.40;58.06;100441.88;;;;-57
2020/07/14 01:25:31;;;;;;;1.98;1.60;;;;;;;21.40;58.08;100441.31;;;;-57
2020/07/14 01:28:31;;;;;;;1.61;1.51;;;;;;;21.39;58.06;100439.66;;;;-57
2020/07/14 01:31:31;;;;;;;1.80;1.70;;;;;;;21.39;58.12;100438.52;;;;-57
2020/07/14 01:34:31;;;;;;;1.89;1.67;;;;;;;21.39;58.08;100433.13;;;;-57
2020/07/14 01:37:31;;;;;;;2.31;1.70;;;;;;;21.38;58.08;100426.47;;;;-57
2020/07/14 01:40:31;;;;;;;2.09;1.81;;;;;;;21.38;58.07;100427.04;;;;-56
2020/07/14 01:43:31;;;;;;;1.79;1.69;;;;;;;21.37;58.09;100424.77;;;;-56
2020/07/14 01:46:31;;;;;;;1.79;1.69;;;;;;;21.37;58.10;100425.48;;;;-57
2020/07/14 01:49:31;;;;;;;2.77;1.69;;;;;;;21.37;58.13;100422.87;;;;-57
2020/07/14 01:52:31;;;;;;;1.79;1.69;;;;;;;21.37;58.10;100421.08;;;;-57
2020/07/14 01:55:31;;;;;;;2.19;1.70;;;;;;;21.36;58.12;100417.91;;;;-57
2020/07/14 01:58:31;;;;;;;1.79;1.69;;;;;;;21.36;58.08;100419.80;;;;-57
2020/07/14 02:01:31;;;;;;;2.09;1.64;;;;;;;21.36;58.11;100420.20;;;;-57
2020/07/14 02:04:31;;;;;;;1.75;1.65;;;;;;;21.35;58.11;100417.11;;;;-57
2020/07/14 02:07:31;;;;;;;1.70;1.60;;;;;;;21.36;58.13;100419.63;;;;-57
2020/07/14 02:10:31;;;;;;;1.55;1.45;;;;;;;21.35;58.13;100416.20;;;;-57
2020/07/14 02:13:31;;;;;;;1.70;1.60;;;;;;;21.34;58.12;100419.05;;;;-56
2020/07/14 02:16:31;;;;;;;1.77;1.67;;;;;;;21.34;58.08;100415.39;;;;-57
2020/07/14 02:19:31;;;;;;;1.80;1.70;;;;;;;21.34;58.11;100411.56;;;;-56
2020/07/14 02:22:31;;;;;;;1.79;1.68;;;;;;;21.34;58.12;100412.94;;;;-56
2020/07/14 02:25:31;;;;;;;1.77;1.67;;;;;;;21.33;58.12;100408.47;;;;-57
2020/07/14 02:28:31;;;;;;;1.82;1.72;;;;;;;21.33;58.11;100406.08;;;;-58
2020/07/14 02:31:31;;;;;;;1.70;1.60;;;;;;;21.33;58.13;100403.81;;;;-57
2020/07/14 02:34:31;;;;;;;1.96;1.76;;;;;;;21.33;58.11;100400.22;;;;-57
2020/07/14 02:37:31;;;;;;;1.71;1.61;;;;;;;21.33;58.13;100399.73;;;;-57
2020/07/14 02:40:31;;;;;;;1.75;1.65;;;;;;;21.32;58.13;100402.34;;;;-57
2020/07/14 02:43:31;;;;;;;1.71;1.61;;;;;;;21.32;58.08;100399.17;;;;-56
2020/07/14 02:46:31;;;;;;;1.80;1.70;;;;;;;21.31;58.09;100399.02;;;;-57
2020/07/14 02:49:31;;;;;;;1.67;1.57;;;;;;;21.31;58.13;100399.56;;;;-57
2020/07/14 02:52:31;;;;;;;1.80;1.70;;;;;;;21.31;58.13;100397.12;;;;-57
2020/07/14 02:55:31;;;;;;;1.71;1.61;;;;;;;21.31;58.11;100399.89;;;;-57
2020/07/14 02:58:31;;;;;;;1.70;1.60;;;;;;;21.30;58.13;100390.69;;;;-57
2020/07/14 03:01:32;;;;;;;1.84;1.65;;;;;;;21.30;58.12;100391.76;;;;-57
2020/07/14 03:04:31;;;;;;;1.79;1.65;;;;;;;21.29;58.10;100389.48;;;;-56
2020/07/14 03:07:31;;;;;;;1.85;1.75;;;;;;;21.30;58.12;100386.30;;;;-56
2020/07/14 03:10:31;;;;;;;1.75;1.65;;;;;;;21.29;58.12;100381.98;;;;-57
2020/07/14 03:13:31;;;;;;;1.75;1.65;;;;;;;21.29;58.09;100381.64;;;;-57
2020/07/14 03:16:31;;;;;;;1.73;1.63;;;;;;;21.29;58.13;100378.46;;;;-57
2020/07/14 03:19:31;;;;;;;1.73;1.63;;;;;;;21.28;58.15;100374.31;;;;-56
2020/07/14 03:22:31;;;;;;;1.61;1.51;;;;;;;21.28;58.13;100371.30;;;;-56
2020/07/14 03:25:31;;;;;;;1.84;1.74;;;;;;;21.28;58.10;100371.22;;;;-57
2020/07/14 03:28:31;;;;;;;1.90;1.79;;;;;;;21.27;58.14;100370.23;;;;-57
2020/07/14 03:31:31;;;;;;;1.63;1.53;;;;;;;21.27;58.10;100370.97;;;;-57
2020/07/14 03:34:31;;;;;;;1.70;1.60;;;;;;;21.26;58.12;100368.77;;;;-57
2020/07/14 03:37:31;;;;;;;1.70;1.60;;;;;;;21.27;58.12;100370.97;;;;-57
2020/07/14 03:40:31;;;;;;;1.77;1.67;;;;;;;21.26;58.13;100369.52;;;;-57
2020/07/14 03:43:31;;;;;;;1.89;1.75;;;;;;;21.26;58.11;100374.64;;;;-57
2020/07/14 03:46:31;;;;;;;1.71;1.61;;;;;;;21.26;58.10;100373.83;;;;-57
2020/07/14 03:49:31;;;;;;;1.81;1.71;;;;;;;21.26;58.06;100371.64;;;;-57
2020/07/14 03:52:31;;;;;;;1.85;1.75;;;;;;;21.25;58.01;100370.07;;;;-58
2020/07/14 03:55:31;;;;;;;1.99;1.80;;;;;;;21.25;57.80;100373.50;;;;-57
2020/07/14 03:58:31;;;;;;;1.91;1.81;;;;;;;21.25;57.60;100373.52;;;;-57
2020/07/14 04:01:31;;;;;;;2.22;2.02;;;;;;;21.25;57.51;100373.01;;;;-57
2020/07/14 04:04:31;;;;;;;2.34;2.14;;;;;;;21.12;53.51;100371.09;;;;-56
2020/07/14 04:07:32;;;;;;;2.54;2.25;;;;;;;20.92;52.16;100374.14;;;;-57
2020/07/14 04:10:31;;;;;;;3.25;2.30;;;;;;;20.76;51.17;100371.87;;;;-56
2020/07/14 04:13:31;;;;;;;2.60;2.31;;;;;;;20.65;51.39;100371.80;;;;-57
2020/07/14 04:16:31;;;;;;;2.61;2.24;;;;;;;20.56;51.21;100378.34;;;;-57
2020/07/14 04:19:31;;;;;;;2.65;2.41;;;;;;;20.48;51.23;100381.12;;;;-56
2020/07/14 04:22:31;;;;;;;2.47;2.27;;;;;;;20.42;51.52;100384.92;;;;-56
2020/07/14 04:25:31;;;;;;;2.43;2.23;;;;;;;20.37;51.57;100383.86;;;;-57
2020/07/14 04:28:31;;;;;;;2.90;2.34;;;;;;;20.33;51.56;100388.82;;;;-57
2020/07/14 04:31:31;;;;;;;2.73;2.22;;;;;;;20.31;51.82;100391.58;;;;-57
2020/07/14 04:34:31;;;;;;;3.17;2.59;;;;;;;20.27;52.07;100387.43;;;;-57
2020/07/14 04:37:31;;;;;;;2.78;2.27;;;;;;;20.29;52.36;100391.01;;;;-57
2020/07/14 04:40:31;;;;;;;3.67;2.29;;;;;;;20.28;51.84;100386.37;;;;-56
2020/07/14 04:43:31;;;;;;;4.77;2.44;;;;;;;20.29;51.65;100389.39;;;;-57
2020/07/14 04:46:31;;;;;;;4.63;2.31;;;;;;;20.26;51.40;100390.20;;;;-57
2020/07/14 04:49:31;;;;;;;3.11;2.20;;;;;;;20.25;51.32;100394.50;;;;-57
2020/07/14 04:52:31;;;;;;;3.84;2.41;;;;;;;20.24;51.19;100389.55;;;;-56
2020/07/14 04:55:31;;;;;;;4.55;2.35;;;;;;;20.26;51.49;100390.61;;;;-57
2020/07/14 04:58:31;;;;;;;3.95;2.24;;;;;;;20.27;51.16;100391.16;;;;-56
2020/07/14 05:01:31;;;;;;;4.65;2.30;;;;;;;20.29;51.15;100385.97;;;;-56
2020/07/14 05:04:31;;;;;;;6.73;2.40;;;;;;;20.29;51.05;100384.42;;;;-57
2020/07/14 05:07:31;;;;;;;2.84;2.18;;;;;;;20.32;50.98;100385.98;;;;-57
2020/07/14 05:10:31;;;;;;;5.20;2.25;;;;;;;20.33;51.17;100383.77;;;;-57
2020/07/14 05:13:31;;;;;;;3.21;2.21;;;;;;;20.34;51.35;100383.70;;;;-56
2020/07/14 05:16:31;;;;;;;3.61;2.17;;;;;;;20.32;51.51;100385.09;;;;-57
2020/07/14 05:19:31;;;;;;;2.41;2.21;;;;;;;20.32;51.46;100384.20;;;;-57
2020/07/14 05:22:31;;;;;;;3.43;2.09;;;;;;;20.31;51.06;100380.44;;;;-57
2020/07/14 05:25:31;;;;;;;3.76;2.24;;;;;;;20.34;51.15;100379.89;;;;-57
2020/07/14 05:28:31;;;;;;;5.33;2.20;;;;;;;20.33;51.25;100377.77;;;;-56
2020/07/14 05:31:31;;;;;;;3.56;2.15;;;;;;;20.32;51.44;100377.04;;;;-57
2020/07/14 05:34:31;;;;;;;2.76;2.05;;;;;;;20.30;51.62;100380.13;;;;-57
2020/07/14 05:37:31;;;;;;;3.59;2.18;;;;;;;20.30;51.66;100375.89;;;;-57
2020/07/14 05:40:31;;;;;;;4.86;2.19;;;;;;;20.34;51.84;100378.02;;;;-56
2020/07/14 05:43:31;;;;;;;5.66;1.98;;;;;;;20.39;52.00;100376.95;;;;-57
2020/07/14 05:46:31;;;;;;;4.26;2.41;;;;;;;20.43;51.92;100378.02;;;;-56
2020/07/14 05:49:31;;;;;;;2.19;2.00;;;;;;;20.46;52.05;100374.67;;;;-57
2020/07/14 05:52:31;;;;;;;2.63;2.09;;;;;;;20.47;52.29;100370.20;;;;-57
2020/07/14 05:55:31;;;;;;;2.65;1.97;;;;;;;20.50;52.56;100371.03;;;;-57
2020/07/14 05:58:31;;;;;;;3.47;1.93;;;;;;;20.53;52.71;100372.98;;;;-57
2020/07/14 06:01:31;;;;;;;2.97;2.01;;;;;;;20.55;52.80;100377.14;;;;-56
2020/07/14 06:04:31;;;;;;;4.38;2.12;;;;;;;20.56;52.96;100374.59;;;;-57
2020/07/14 06:07:31;;;;;;;2.87;2.11;;;;;;;20.59;53.15;100374.57;;;;-56
2020/07/14 06:10:31;;;;;;;9.54;2.29;;;;;;;20.60;53.16;100369.17;;;;-56
2020/07/14 06:13:31;;;;;;;2.64;2.06;;;;;;;20.61;53.26;100370.17;;;;-57
2020/07/14 06:16:31;;;;;;;5.63;2.32;;;;;;;20.62;53.50;100366.34;;;;-56
2020/07/14 06:19:31;;;;;;;3.74;2.07;;;;;;;20.63;53.63;100366.26;;;;-57
2020/07/14 06:22:31;;;;;;;2.85;2.10;;;;;;;20.64;53.78;100369.42;;;;-57
2020/07/14 06:25:31;;;;;;;2.73;2.09;;;;;;;20.65;53.81;100367.89;;;;-57
2020/07/14 06:28:31;;;;;;;3.13;2.00;;;;;;;20.65;53.90;100364.70;;;;-57
2020/07/14 06:31:31;;;;;;;2.18;1.95;;;;;;;20.66;54.03;100360.55;;;;-57
2020/07/14 06:34:31;;;;;;;3.51;2.14;;;;;;;20.66;54.03;100353.55;;;;-56
2020/07/14 06:37:31;;;;;;;2.16;1.88;;;;;;;20.67;54.11;100356.73;;;;-56
2020/07/14 06:40:31;;;;;;;2.32;1.93;;;;;;;20.68;54.18;100354.20;;;;-57
2020/07/14 06:43:31;;;;;;;3.23;2.07;;;;;;;20.68;54.23;100355.58;;;;-57
2020/07/14 06:46:31;;;;;;;2.37;2.00;;;;;;;20.69;54.27;100359.74;;;;-56
2020/07/14 06:49:31;;;;;;;2.05;1.95;;;;;;;20.70;54.36;100362.02;;;;-57
2020/07/14 06:52:31;;;;;;;2.28;2.03;;;;;;;20.71;54.35;100361.20;;;;-58
2020/07/14 06:55:31;;;;;;;2.69;2.10;;;;;;;20.70;54.42;100360.80;;;;-57
2020/07/14 06:58:31;;;;;;;2.32;2.12;;;;;;;20.71;54.48;100360.89;;;;-56
2020/07/14 07:01:31;;;;;;;2.71;2.07;;;;;;;20.72;54.50;100357.62;;;;-57
2020/07/14 07:04:31;;;;;;;2.93;1.91;;;;;;;20.72;54.53;100355.02;;;;-56
2020/07/14 07:07:31;;;;;;;2.25;2.00;;;;;;;20.72;54.60;100355.75;;;;-57
2020/07/14 07:10:31;;;;;;;2.30;2.07;;;;;;;20.72;54.63;100355.09;;;;-57
2020/07/14 07:13:31;;;;;;;2.25;2.01;;;;;;;20.73;54.65;100350.36;;;;-56
2020/07/14 07:16:31;;;;;;;2.20;2.00;;;;;;;20.74;54.68;100350.78;;;;-57
2020/07/14 07:19:31;;;;;;;2.00;1.90;;;;;;;20.74;54.71;100348.59;;;;-56
2020/07/14 07:22:31;;;;;;;2.05;1.89;;;;;;;20.74;54.74;100347.59;;;;-57
2020/07/14 07:25:31;;;;;;;2.07;1.89;;;;;;;20.74;54.77;100346.38;;;;-57
2020/07/14 07:28:31;;;;;;;2.00;1.90;;;;;;;20.74;54.81;100345.98;;;;-56
2020/07/14 07:31:31;;;;;;;2.20;2.00;;;;;;;20.75;54.84;100345.96;;;;-56
2020/07/14 07:34:31;;;;;;;2.10;1.90;;;;;;;20.76;54.85;100341.58;;;;-56
2020/07/14 07:37:31;;;;;;;2.21;2.01;;;;;;;20.76;54.87;100341.34;;;;-57
2020/07/14 07:40:31;;;;;;;2.41;2.21;;;;;;;20.75;54.90;100335.48;;;;-57
2020/07/14 07:43:31;;;;;;;3.15;2.04;;;;;;;20.78;54.95;100336.28;;;;-59
2020/07/14 07:46:31;;;;;;;3.83;2.10;;;;;;;20.80;55.00;100337.09;;;;-51
2020/07/14 07:49:31;;;;;;;2.89;2.20;;;;;;;20.82;55.19;100336.44;;;;-51
2020/07/14 07:52:31;;;;;;;2.93;1.80;;;;;;;20.84;55.08;100335.70;;;;-51
2020/07/14 07:55:31;;;;;;;2.11;1.90;;;;;;;20.85;55.18;100334.14;;;;-51
2020/07/14 07:58:31;;;;;;;2.52;1.93;;;;;;;20.86;55.17;100328.95;;;;-52
2020/07/14 08:01:31;;;;;;;2.33;2.01;;;;;;;20.87;55.19;100328.85;;;;-51
2020/07/14 08:04:31;;;;;;;2.09;1.88;;;;;;;20.88;55.21;100320.23;;;;-51
2020/07/14 08:07:31;;;;;;;2.18;1.94;;;;;;;20.89;55.18;100323.95;;;;-51
2020/07/14 08:10:31;;;;;;;2.83;2.01;;;;;;;20.89;55.17;100318.17;;;;-51
2020/07/14 08:13:31;;;;;;;3.37;2.09;;;;;;;20.91;55.26;100316.30;;;;-59
2020/07/14 08:16:31;;;;;;;2.69;1.90;;;;;;;20.93;55.39;100317.20;;;;-55
2020/07/14 08:19:31;;;;;;;2.83;2.05;;;;;;;20.94;55.48;100312.55;;;;-48
2020/07/14 08:22:31;;;;;;;2.18;1.89;;;;;;;20.97;55.63;100310.10;;;;-56
2020/07/14 08:25:31;;;;;;;2.80;1.99;;;;;;;20.98;55.64;100305.14;;;;-54
2020/07/14 08:28:31;;;;;;;7.25;2.27;;;;;;;21.00;55.76;100301.38;;;;-50
2020/07/14 08:31:31;;;;;;;6.15;2.09;;;;;;;21.02;55.85;100301.59;;;;-61
2020/07/14 08:34:31;;;;;;;8.34;2.28;;;;;;;21.03;55.95;100297.78;;;;-55
2020/07/14 08:37:31;;;;;;;2.60;1.96;;;;;;;21.05;55.96;100294.03;;;;-65
2020/07/14 08:40:31;;;;;;;4.49;2.09;;;;;;;21.07;56.02;100295.17;;;;-58
2020/07/14 08:43:31;;;;;;;3.85;2.03;;;;;;;21.09;56.00;100290.52;;;;-56
2020/07/14 08:46:31;;;;;;;3.97;2.25;;;;;;;21.11;56.08;100284.41;;;;-59
2020/07/14 08:49:31;;;;;;;4.73;2.04;;;;;;;21.11;56.13;100280.50;;;;-56
2020/07/14 08:52:31;;;;;;;2.77;2.01;;;;;;;21.12;56.15;100276.72;;;;-50
2020/07/14 08:55:31;;;;;;;3.57;2.05;;;;;;;21.14;56.19;100274.44;;;;-50
2020/07/14 08:58:31;;;;;;;3.75;2.10;;;;;;;21.16;56.16;100273.20;;;;-56
2020/07/14 09:01:31;;;;;;;3.27;1.96;;;;;;;21.16;56.16;100267.98;;;;-51
2020/07/14 09:04:31;;;;;;;4.47;2.27;;;;;;;21.19;56.24;100271.02;;;;-54
2020/07/14 09:07:31;;;;;;;3.87;2.19;;;;;;;21.19;56.23;100265.80;;;;-61
2020/07/14 09:10:31;;;;;;;4.22;2.11;;;;;;;21.19;56.07;100266.52;;;;-60
2020/07/14 09:13:31;;;;;;;2.79;1.93;;;;;;;21.19;56.14;100264.81;;;;-60
2020/07/14 09:16:31;;;;;;;5.36;2.05;;;;;;;21.19;56.15;100261.88;;;;-60
2020/07/14 09:19:31;;;;;;;4.79;2.11;;;;;;;21.19;56.12;100258.63;;;;-60
2020/07/14 09:22:31;;;;;;;4.90;2.03;;;;;;;21.19;56.08;100255.05;;;;-59
2020/07/14 09:25:31;;;;;;;2.81;2.07;;;;;;;21.19;56.07;100253.00;;;;-59
2020/07/14 09:28:31;;;;;;;3.19;2.12;;;;;;;21.19;56.10;100251.38;;;;-59
2020/07/14 09:31:31;;;;;;;3.29;2.05;;;;;;;21.19;56.07;100249.00;;;;-60
2020/07/14 09:34:31;;;;;;;2.78;2.00;;;;;;;21.19;56.08;100244.11;;;;-59
2020/07/14 09:37:31;;;;;;;3.24;2.05;;;;;;;21.18;56.06;100239.55;;;;-60
2020/07/14 09:40:31;;;;;;;3.41;1.99;;;;;;;21.18;56.07;100237.66;;;;-57
2020/07/14 09:43:31;;;;;;;4.30;2.17;;;;;;;21.19;56.06;100238.17;;;;-57
2020/07/14 09:46:31;;;;;;;4.29;2.40;;;;;;;21.19;56.05;100235.41;;;;-57
2020/07/14 09:49:31;;;;;;;3.15;2.01;;;;;;;21.19;55.98;100230.52;;;;-57
2020/07/14 09:52:31;;;;;;;3.53;2.00;;;;;;;21.19;56.04;100227.33;;;;-57
2020/07/14 09:55:31;;;;;;;2.37;2.00;;;;;;;21.19;55.99;100222.11;;;;-58
2020/07/14 09:58:31;;;;;;;4.11;1.99;;;;;;;21.19;55.96;100223.49;;;;-57
2020/07/14 10:01:31;;;;;;;4.04;1.95;;;;;;;21.19;55.99;100215.10;;;;-57
2020/07/14 10:04:31;;;;;;;2.83;1.97;;;;;;;21.19;56.01;100218.78;;;;-57
2020/07/14 10:07:31;;;;;;;3.02;2.01;;;;;;;21.19;55.99;100212.73;;;;-56
2020/07/14 10:10:31;;;;;;;4.18;1.97;;;;;;;21.19;56.06;100211.11;;;;-56
2020/07/14 10:13:31;;;;;;;4.79;1.93;;;;;;;21.22;56.13;100204.58;;;;-56
2020/07/14 10:16:31;;;;;;;2.25;1.94;;;;;;;21.22;56.11;100197.80;;;;-58
2020/07/14 10:19:31;;;;;;;2.62;1.90;;;;;;;21.25;56.18;100202.75;;;;-56
2020/07/14 10:22:31;;;;;;;3.15;2.03;;;;;;;21.25;56.24;100197.13;;;;-56
2020/07/14 10:25:31;;;;;;;4.03;2.17;;;;;;;21.25;56.34;100196.81;;;;-59
2020/07/14 10:28:43;;;;;;;3.20;2.03;;;;;;;21.26;56.36;100193.22;;;;-57
2020/07/14 10:31:31;;;;;;;3.11;1.99;;;;;;;21.29;56.37;100193.84;;;;-57
2020/07/14 10:34:31;;;;;;;4.51;2.06;;;;;;;21.30;56.19;100194.27;;;;-60
2020/07/14 10:37:31;;;;;;;3.29;2.11;;;;;;;21.30;56.26;100190.42;;;;-60
2020/07/14 10:40:31;;;;;;;4.45;2.11;;;;;;;21.30;56.23;100186.34;;;;-60
2020/07/14 10:43:31;;;;;;;2.62;1.97;;;;;;;21.32;56.20;100187.33;;;;-60
2020/07/14 10:46:31;;;;;;;4.38;2.23;;;;;;;21.31;56.22;100181.39;;;;-60
2020/07/14 10:49:31;;;;;;;2.78;1.99;;;;;;;21.32;56.22;100183.33;;;;-60
2020/07/14 10:52:31;;;;;;;3.95;1.94;;;;;;;21.31;56.17;100177.64;;;;-60
2020/07/14 10:55:31;;;;;;;5.76;1.99;;;;;;;21.31;56.32;100176.31;;;;-57
2020/07/14 10:58:31;;;;;;;3.65;1.90;;;;;;;21.32;56.24;100171.43;;;;-57
2020/07/14 11:01:31;;;;;;;3.14;1.99;;;;;;;21.32;56.38;100167.27;;;;-67
2020/07/14 11:04:31;;;;;;;6.11;2.16;;;;;;;21.32;56.32;100165.08;;;;-64
2020/07/14 11:07:31;;;;;;;4.25;2.01;;;;;;;21.32;56.27;100158.87;;;;-62
2020/07/14 11:10:31;;;;;;;4.28;2.00;;;;;;;21.31;56.27;100153.00;;;;-65
2020/07/14 11:13:31;;;;;;;4.30;2.11;;;;;;;21.32;56.25;100156.11;;;;-63
2020/07/14 11:16:31;;;;;;;3.71;2.09;;;;;;;21.31;56.26;100144.85;;;;-65
2020/07/14 11:19:31;;;;;;;3.24;1.71;;;;;;;21.32;56.25;100144.20;;;;-64
2020/07/14 11:22:31;;;;;;;3.38;1.75;;;;;;;21.32;56.24;100138.02;;;;-64
2020/07/14 11:25:31;;;;;;;6.11;1.93;;;;;;;21.31;56.24;100135.25;;;;-64
2020/07/14 11:28:31;;;;;;;5.68;2.07;;;;;;;21.32;56.35;100132.30;;;;-58
2020/07/14 11:31:31;;;;;;;7.04;2.39;;;;;;;21.33;56.42;100129.38;;;;-59
2020/07/14 11:34:31;;;;;;;15.44;2.43;;;;;;;21.35;56.54;100128.55;;;;-59
2020/07/14 11:37:31;;;;;;;6.59;2.13;;;;;;;21.37;56.46;100125.48;;;;-57
2020/07/14 11:40:31;;;;;;;6.04;2.27;;;;;;;21.37;56.55;100119.08;;;;-55
2020/07/14 11:43:31;;;;;;;6.79;2.01;;;;;;;21.40;56.64;100122.14;;;;-61
2020/07/14 11:46:31;;;;;;;8.99;2.27;;;;;;;21.41;56.83;100113.08;;;;-52
2020/07/14 11:49:31;;;;;;;7.89;2.06;;;;;;;21.42;56.70;100108.55;;;;-61
2020/07/14 11:52:31;;;;;;;6.98;2.19;;;;;;;21.43;56.72;100114.48;;;;-57
2020/07/14 11:55:31;;;;;;;7.70;2.01;;;;;;;21.45;56.95;100108.52;;;;-60
2020/07/14 11:58:31;;;;;;;6.20;2.25;;;;;;;21.45;56.91;100109.81;;;;-56
2020/07/14 12:01:31;;;;;;;4.59;2.14;;;;;;;21.46;56.89;100103.52;;;;-61
2020/07/14 12:04:31;;;;;;;10.21;2.38;;;;;;;21.46;56.97;100104.92;;;;-55
2020/07/14 12:07:31;;;;;;;5.21;2.20;;;;;;;21.48;56.97;100098.41;;;;-56
2020/07/14 12:10:31;;;;;;;6.21;2.12;;;;;;;21.49;56.96;100099.28;;;;-54
2020/07/14 12:13:31;;;;;;;9.49;2.15;;;;;;;21.49;57.04;100100.81;;;;-55
2020/07/14 12:16:31;;;;;;;11.31;2.23;;;;;;;21.51;57.01;100098.86;;;;-58
2020/07/14 12:19:31;;;;;;;7.01;2.22;;;;;;;21.53;57.23;100093.29;;;;-50
2020/07/14 12:22:31;;;;;;;6.94;2.18;;;;;;;21.55;57.26;100085.78;;;;-55
2020/07/14 12:25:31;;;;;;;11.37;2.65;;;;;;;21.57;57.26;100090.17;;;;-65
2020/07/14 12:28:31;;;;;;;10.05;2.59;;;;;;;21.58;57.34;100083.39;;;;-59
2020/07/14 12:31:31;;;;;;;12.27;2.45;;;;;;;21.61;57.62;100084.74;;;;-58
2020/07/14 12:34:31;;;;;;;12.95;2.81;;;;;;;21.63;57.70;100087.44;;;;-59
2020/07/14 12:37:31;;;;;;;11.85;2.46;;;;;;;21.64;57.65;100079.24;;;;-53
2020/07/14 12:40:31;;;;;;;8.97;2.62;;;;;;;21.66;57.68;100073.93;;;;-49
2020/07/14 12:43:32;;;;;;;14.01;2.45;;;;;;;21.68;57.62;100080.53;;;;-61
2020/07/14 12:46:31;;;;;;;9.83;2.13;;;;;;;21.69;57.61;100070.82;;;;-52
2020/07/14 12:49:31;;;;;;;11.90;3.01;;;;;;;21.69;57.57;100069.99;;;;-59
2020/07/14 12:52:31;;;;;;;16.88;2.66;;;;;;;21.72;57.81;100067.44;;;;-61
2020/07/14 12:55:31;;;;;;;11.80;2.30;;;;;;;21.73;57.77;100060.00;;;;-49
2020/07/14 12:58:31;;;;;;;8.53;2.53;;;;;;;21.74;57.72;100061.37;;;;-43
2020/07/14 13:01:31;;;;;;;13.87;2.57;;;;;;;21.76;57.47;100061.11;;;;-50
2020/07/14 13:04:31;;;;;;;9.72;2.57;;;;;;;21.77;57.61;100056.05;;;;-46
2020/07/14 13:07:31;;;;;;;11.55;2.75;;;;;;;21.77;57.65;100052.23;;;;-46
2020/07/14 13:10:31;;;;;;;14.09;2.78;;;;;;;21.78;57.53;100052.54;;;;-57
2020/07/14 13:13:31;;;;;;;13.05;2.55;;;;;;;21.78;57.30;100043.56;;;;-43
2020/07/14 13:16:31;;;;;;;12.21;2.71;;;;;;;21.78;57.66;100046.50;;;;-59
2020/07/14 13:19:31;;;;;;;11.91;2.91;;;;;;;21.81;57.71;100045.08;;;;-49
2020/07/14 13:22:31;;;;;;;19.90;2.80;;;;;;;21.82;57.77;100042.72;;;;-45
2020/07/14 13:25:31;;;;;;;11.95;2.71;;;;;;;21.82;57.76;100042.13;;;;-48
2020/07/14 13:28:31;;;;;;;12.96;2.85;;;;;;;21.81;57.54;100042.73;;;;-52
2020/07/14 13:31:31;;;;;;;12.27;2.32;;;;;;;21.81;57.22;100039.22;;;;-48
2020/07/14 13:34:31;;;;;;;12.07;2.85;;;;;;;21.82;57.26;100035.55;;;;-52
2020/07/14 13:37:31;;;;;;;10.65;2.43;;;;;;;21.82;57.49;100040.01;;;;-48
2020/07/14 13:40:31;;;;;;;9.98;2.35;;;;;;;21.83;57.28;100033.07;;;;-48
2020/07/14 13:43:31;;;;;;;11.23;2.61;;;;;;;21.82;57.63;100027.77;;;;-50
2020/07/14 13:46:31;;;;;;;8.92;2.44;;;;;;;21.84;57.37;100026.45;;;;-53
2020/07/14 13:49:31;;;;;;;14.51;2.60;;;;;;;21.85;57.27;100025.23;;;;-56
2020/07/14 13:52:31;;;;;;;15.45;2.85;;;;;;;21.86;57.89;100016.56;;;;-56
2020/07/14 13:55:31;;;;;;;16.36;2.83;;;;;;;21.86;57.50;100003.26;;;;-51
2020/07/14 13:58:31;;;;;;;13.83;2.67;;;;;;;21.87;57.65;100007.84;;;;-51
2020/07/14 14:01:31;;;;;;;15.74;2.48;;;;;;;21.88;57.68;100001.22;;;;-56
2020/07/14 14:04:31;;;;;;;11.47;2.36;;;;;;;21.89;57.82;100007.47;;;;-48
2020/07/14 14:07:31;;;;;;;15.93;2.95;;;;;;;21.92;57.53;100002.06;;;;-47
2020/07/14 14:10:31;;;;;;;8.77;2.40;;;;;;;21.92;57.48;100000.61;;;;-47
2020/07/14 14:13:31;;;;;;;9.63;2.45;;;;;;;21.91;57.36;99996.59;;;;-52
2020/07/14 14:16:32;;;;;;;10.00;2.78;;;;;;;21.92;57.53;100005.98;;;;-50
2020/07/14 14:19:31;;;;;;;13.77;2.45;;;;;;;21.93;57.47;100004.98;;;;-51
2020/07/14 14:22:31;;;;;;;13.31;3.37;;;;;;;21.93;57.29;100006.20;;;;-52
2020/07/14 14:25:31;;;;;;;10.93;2.63;;;;;;;21.94;57.31;100007.11;;;;-53
2020/07/14 14:28:31;;;;;;;10.09;2.91;;;;;;;21.94;57.33;100007.02;;;;-57
2020/07/14 14:31:33;;;;;;;18.60;2.69;;;;;;;21.95;57.28;100005.45;;;;-56
2020/07/14 14:34:31;;;;;;;13.67;2.55;;;;;;;21.94;57.26;100003.92;;;;-56
2020/07/14 14:42:31;;;;;;;11.21;2.53;;;;;;;21.92;57.31;99998.31;;;;-56
2020/07/14 14:45:31;;;;;;;18.56;2.93;;;;;;;21.94;57.54;99995.28;;;;-56
2020/07/14 14:48:31;;;;;;;12.42;2.66;;;;;;;21.95;57.55;99995.00;;;;-60
2020/07/14 14:51:31;;;;;;;14.35;2.75;;;;;;;21.97;57.53;99990.58;;;;-55
2020/07/14 14:54:31;;;;;;;12.87;2.65;;;;;;;21.98;57.58;99986.67;;;;-57
2020/07/14 14:57:31;;;;;;;11.14;2.55;;;;;;;21.98;57.77;99984.61;;;;-53
2020/07/14 15:00:31;;;;;;;11.27;2.73;;;;;;;22.00;57.65;99985.83;;;;-55
2020/07/14 15:03:31;;;;;;;20.83;3.21;;;;;;;22.00;57.81;99983.88;;;;-52
2020/07/14 15:06:31;;;;;;;13.75;2.83;;;;;;;22.02;57.62;99983.58;;;;-51
2020/07/14 15:09:31;;;;;;;19.01;3.10;;;;;;;22.03;57.58;99976.23;;;;-56
2020/07/14 15:12:31;;;;;;;21.71;3.31;;;;;;;22.04;57.69;99978.98;;;;-53
2020/07/14 15:15:31;;;;;;;13.17;3.31;;;;;;;22.04;57.39;99974.92;;;;-54
2020/07/14 15:18:31;;;;;;;9.59;2.71;;;;;;;22.05;57.65;99971.72;;;;-60
2020/07/14 15:21:32;;;;;;;14.21;2.90;;;;;;;22.04;57.37;99971.48;;;;-59
2020/07/14 15:24:32;;;;;;;12.85;2.81;;;;;;;22.02;57.37;99974.55;;;;-58
2020/07/14 15:27:31;;;;;;;10.79;2.91;;;;;;;22.01;57.31;99968.98;;;;-54
2020/07/14 15:30:31;;;;;;;13.31;2.58;;;;;;;21.99;57.20;99966.07;;;;-53
2020/07/14 15:33:31;;;;;;;9.49;2.43;;;;;;;21.98;57.20;99970.25;;;;-53
2020/07/14 15:36:31;;;;;;;14.95;3.03;;;;;;;21.97;57.26;99969.43;;;;-53
2020/07/14 15:39:31;;;;;;;11.62;2.81;;;;;;;21.97;57.16;99966.77;;;;-58
2020/07/14 15:42:31;;;;;;;12.65;2.41;;;;;;;21.97;57.24;99966.09;;;;-56
2020/07/14 15:45:31;;;;;;;5.77;2.26;;;;;;;21.96;57.00;99966.12;;;;-52
2020/07/14 15:48:31;;;;;;;7.70;2.46;;;;;;;21.97;57.00;99964.38;;;;-48
2020/07/14 15:51:31;;;;;;;12.03;2.99;;;;;;;21.97;57.29;99959.80;;;;-57
2020/07/14 15:54:31;;;;;;;11.17;2.58;;;;;;;21.98;57.20;99960.95;;;;-56
2020/07/14 15:57:31;;;;;;;6.62;2.36;;;;;;;22.00;57.14;99959.88;;;;-55
2020/07/14 16:00:31;;;;;;;10.01;2.39;;;;;;;21.99;57.21;99958.23;;;;-58
2020/07/14 16:03:31;;;;;;;11.39;2.71;;;;;;;22.00;57.04;99952.38;;;;-51
2020/07/14 16:06:31;;;;;;;11.87;2.59;;;;;;;22.00;56.97;99954.98;;;;-63
2020/07/14 16:09:31;;;;;;;12.55;2.80;;;;;;;22.00;57.02;99957.17;;;;-54
2020/07/14 16:12:31;;;;;;;10.14;2.46;;;;;;;22.01;56.96;99955.36;;;;-53
2020/07/14 16:15:31;;;;;;;10.92;2.52;;;;;;;22.01;57.02;99954.64;;;;-53
2020/07/14 16:18:31;;;;;;;10.45;2.28;;;;;;;22.00;56.96;99954.09;;;;-57
2020/07/14 16:21:31;;;;;;;7.06;2.53;;;;;;;22.00;57.00;99950.01;;;;-55
2020/07/14 16:24:31;;;;;;;8.98;2.30;;;;;;;21.98;57.04;99952.14;;;;-60
2020/07/14 16:27:31;;;;;;;6.92;2.21;;;;;;;21.98;56.99;99950.84;;;;-60
2020/07/14 16:30:31;;;;;;;6.87;2.43;;;;;;;21.97;56.99;99949.22;;;;-60
2020/07/14 16:33:31;;;;;;;5.87;2.45;;;;;;;21.95;57.07;99947.75;;;;-60
2020/07/14 16:36:31;;;;;;;7.43;2.20;;;;;;;21.95;57.26;99948.00;;;;-49
2020/07/14 16:39:31;;;;;;;7.80;2.33;;;;;;;21.97;57.20;99943.42;;;;-54
2020/07/14 16:42:31;;;;;;;7.28;2.30;;;;;;;21.96;57.23;99942.05;;;;-54
2020/07/14 16:45:31;;;;;;;7.23;2.48;;;;;;;21.97;57.29;99943.81;;;;-54